Weather reports worldwide

Advertisment
Bealach, United Kingdom (3039): temperature & dewpoint: 25.10.2020 04:00:00 - 31.10.2020 04:00:00 (GMT)Bealach, United Kingdom (3039): wind speed & gusts: 25.10.2020 04:00:00 - 31.10.2020 04:00:00 (GMT)Bealach, United Kingdom (3039): wind direction: 25.10.2020 04:00:00 - 31.10.2020 04:00:00 (GMT)
Date & Time tt [°C] td [°C] ff [km/h] ff [kn] fx [km/h] fx [kn] dd
31.10.2020 04:00:00 2,6 -1,4 41 22 80 43 ESE
31.10.2020 03:00:00 3,3 -1,2 34 18 67 36 ESE
31.10.2020 02:00:00 2,6 0,7 34 18 52 28 ESE
31.10.2020 01:00:00 2,4 1,3 39 21 55 30 SSE
31.10.2020 00:00:00 2,4 1,3 31 17 57 31 SSE
30.10.2020 23:00:00 2,7 2,7 37 20 57 31 S
30.10.2020 22:00:00 2,6 2,6 48 26 59 32 S
30.10.2020 21:00:00 2,7 2,7 54 29 68 37 S
30.10.2020 20:00:00 2,7 2,7 55 30 70 38 SSW
30.10.2020 19:00:00 2,5 2,3 52 28 65 35 SSW
30.10.2020 18:00:00 1,4 0,6 57 31 74 40 SSW
30.10.2020 17:00:00 2,3 0,1 44 24 63 34 SW
30.10.2020 16:00:00 2,3 2,1 42 23 72 39 SW
30.10.2020 15:00:00 2,2 2,0 52 28 68 37 WSW
30.10.2020 14:00:00 2,3 2,3 46 25 61 33 WSW
30.10.2020 13:00:00 2,9 2,8 41 22 57 31 WSW
30.10.2020 12:00:00 3,1 3,1 39 21 67 36 SW
30.10.2020 11:00:00 2,2 2,2 52 28 70 38 WSW
30.10.2020 10:00:00 1,2 1,2 57 31 74 40 W
30.10.2020 09:00:00 2,2 2,2 54 29 68 37 WSW
30.10.2020 08:00:00 2,0 2,0 50 27 70 38 WSW
30.10.2020 07:00:00 2,2 2,2 61 33 85 46 WSW
30.10.2020 06:00:00 3,3 3,3 61 33 83 45 WSW
30.10.2020 05:00:00 3,8 3,8 65 35 81 44 WSW
30.10.2020 04:00:00 4,6 4,6 59 32 83 45 W
30.10.2020 03:00:00 6,1 6,0 67 36 87 47 W
30.10.2020 02:00:00 7,3 7,3 74 40 102 55 WSW
30.10.2020 01:00:00 8,1 8,1 85 46 122 66 SSW
30.10.2020 00:00:00 8,6 8,6 96 52 122 66 SSW
29.10.2020 23:00:00 9,0 9,0 89 48 115 62 SSW
29.10.2020 22:00:00 9,1 9,0 80 43 104 56 SSW
29.10.2020 21:00:00 9,1 9,1 72 39 104 56 S
29.10.2020 20:00:00 9,1 9,1 59 32 94 51 S
29.10.2020 19:00:00 8,6 8,6 57 31 85 46 S
29.10.2020 18:00:00 7,2 7,2 41 22 70 38 SSE
29.10.2020 17:00:00 5,7 5,7 22 12 48 26 SE
29.10.2020 16:00:00 4,8 4,8 16 9 54 29 ESE
29.10.2020 15:00:00 4,1 4,1 21 11 63 34 SSE
29.10.2020 14:00:00 3,6 3,6 41 22 61 33 ESE
29.10.2020 13:00:00 3,0 3,0 44 24 65 35 E
29.10.2020 12:00:00 2,9 2,9 29 16 54 29 E
29.10.2020 11:00:00 2,6 2,6 15 8 - - SE
29.10.2020 10:00:00 2,3 2,3 16 9 48 26 SE
29.10.2020 09:00:00 2,2 2,2 37 20 57 31 SSE
29.10.2020 08:00:00 2,3 2,3 28 15 48 26 SSE
29.10.2020 07:00:00 1,9 1,9 41 22 54 29 S
29.10.2020 06:00:00 2,6 2,6 41 22 55 30 SSW
29.10.2020 05:00:00 2,4 2,4 31 17 - - SSW
29.10.2020 04:00:00 2,5 2,5 34 18 57 31 WSW
29.10.2020 03:00:00 2,1 2,1 42 23 61 33 WSW
29.10.2020 02:00:00 2,5 2,5 41 22 70 38 WSW
29.10.2020 01:00:00 3,5 3,5 44 24 61 33 WSW
29.10.2020 00:00:00 3,0 3,0 46 25 59 32 WSW
28.10.2020 23:00:00 3,1 3,1 35 19 54 29 W
28.10.2020 22:00:00 3,4 3,4 31 17 57 31 SW
28.10.2020 21:00:00 2,9 2,9 48 26 68 37 SSW
28.10.2020 20:00:00 3,0 3,0 54 29 74 40 SSW
28.10.2020 19:00:00 2,9 2,9 46 25 63 34 SSW
28.10.2020 18:00:00 2,9 2,9 48 26 65 35 SSW
28.10.2020 17:00:00 3,0 3,0 44 24 72 39 SW
28.10.2020 16:00:00 3,4 3,4 37 20 63 34 SW
28.10.2020 15:00:00 3,2 3,2 50 27 65 35 SSW
28.10.2020 14:00:00 3,3 3,3 48 26 65 35 SSW
28.10.2020 13:00:00 3,1 3,1 57 31 81 44 SSW
28.10.2020 12:00:00 3,3 3,3 18 10 70 38 S
28.10.2020 11:00:00 3,2 3,2 35 19 72 39 SSW
28.10.2020 10:00:00 3,2 3,2 52 28 81 44 S
28.10.2020 09:00:00 3,3 3,3 50 27 80 43 SSW
28.10.2020 08:00:00 2,2 2,2 55 30 89 48 SSW
28.10.2020 07:00:00 2,7 2,7 50 27 83 45 SSW
28.10.2020 06:00:00 2,9 2,9 39 21 67 36 SSW
28.10.2020 05:00:00 2,3 2,3 52 28 85 46 S
28.10.2020 04:00:00 3,0 3,0 41 22 72 39 S
28.10.2020 03:00:00 - - 55 30 72 39 SSW
28.10.2020 02:00:00 2,4 2,4 42 23 61 33 SSW
28.10.2020 01:00:00 2,5 2,5 39 21 63 34 SSW
28.10.2020 00:00:00 2,1 2,1 44 24 59 32 S
27.10.2020 23:00:00 2,3 2,3 35 19 55 30 S
27.10.2020 22:00:00 2,3 2,3 39 21 50 27 SSW
27.10.2020 21:00:00 2,3 2,3 37 20 46 25 SSW
27.10.2020 20:00:00 2,2 2,2 31 17 - - SSW
27.10.2020 19:00:00 2,4 2,4 26 14 - - SSW
27.10.2020 18:00:00 1,4 1,4 37 20 59 32 W
27.10.2020 17:00:00 2,1 2,1 46 25 59 32 WSW
27.10.2020 16:00:00 3,1 3,1 35 19 48 26 SW
27.10.2020 15:00:00 3,5 3,5 22 12 - - SSE
27.10.2020 14:00:00 3,3 3,3 11 6 - - ESE
27.10.2020 13:00:00 2,6 2,6 22 12 - - ESE
27.10.2020 12:00:00 3,0 3,0 18 10 48 26 E
27.10.2020 11:00:00 2,5 2,5 16 9 - - ESE
27.10.2020 10:00:00 2,2 2,2 18 10 - - ESE
27.10.2020 09:00:00 2,0 2,0 15 8 - - ESE
27.10.2020 08:00:00 2,1 2,1 21 11 - - SSE
27.10.2020 07:00:00 2,2 2,2 16 9 - - SE
27.10.2020 06:00:00 2,1 2,1 18 10 - - SSE
27.10.2020 05:00:00 2,4 2,4 13 7 - - SSW
27.10.2020 04:00:00 2,9 2,9 8 4 - - WSW
27.10.2020 03:00:00 3,2 3,2 4 2 - - WNW
27.10.2020 02:00:00 3,2 3,2 8 4 - - NNE
27.10.2020 01:00:00 3,2 3,2 15 8 - - NNW
27.10.2020 00:00:00 3,3 3,3 13 7 - - NNW
26.10.2020 23:00:00 3,4 3,4 18 10 - - N
26.10.2020 22:00:00 3,4 3,4 28 15 - - NNW
26.10.2020 21:00:00 3,7 3,7 37 20 54 29 NNW
26.10.2020 20:00:00 3,6 3,6 39 21 59 32 NNW
26.10.2020 19:00:00 3,9 3,9 42 23 54 29 NNW
26.10.2020 18:00:00 3,9 3,9 39 21 61 33 NNW
26.10.2020 17:00:00 3,9 3,9 42 23 72 39 N
26.10.2020 16:00:00 4,7 4,7 55 30 68 37 NNW
26.10.2020 15:00:00 4,0 4,0 44 24 63 34 NNW
26.10.2020 14:00:00 3,5 3,5 46 25 57 31 NNW
26.10.2020 13:00:00 4,2 4,2 41 22 54 29 NNW
26.10.2020 12:00:00 3,5 3,5 37 20 61 33 N
26.10.2020 11:00:00 3,6 3,6 50 27 68 37 N
26.10.2020 10:00:00 4,2 4,2 46 25 55 30 NNW
26.10.2020 09:00:00 3,9 3,9 37 20 50 27 WNW
26.10.2020 08:00:00 4,0 4,0 28 15 - - WNW
26.10.2020 07:00:00 3,7 3,7 29 16 - - WNW
26.10.2020 06:00:00 3,7 3,7 28 15 - - W
26.10.2020 05:00:00 3,6 3,6 35 19 50 27 WSW
26.10.2020 04:00:00 4,0 4,0 31 17 46 25 SW
26.10.2020 03:00:00 4,1 4,1 29 16 - - SSW
26.10.2020 02:00:00 3,8 3,8 37 20 61 33 S
26.10.2020 01:00:00 3,7 3,7 28 15 61 33 SSW
26.10.2020 00:00:00 3,5 3,5 24 13 57 31 S
25.10.2020 23:00:00 3,3 3,3 28 15 85 46 S
25.10.2020 22:00:00 3,5 3,5 35 19 98 53 S
25.10.2020 21:00:00 3,7 3,7 29 16 104 56 S
25.10.2020 20:00:00 3,6 3,6 37 20 106 57 S
25.10.2020 19:00:00 3,6 3,6 35 19 94 51 SSE
25.10.2020 18:00:00 3,6 3,6 41 22 104 56 SSE
25.10.2020 17:00:00 3,7 3,7 37 20 98 53 SSE
25.10.2020 16:00:00 3,8 3,8 31 17 106 57 S
25.10.2020 15:00:00 3,7 3,7 42 23 76 41 SSW
25.10.2020 14:00:00 2,3 2,3 34 18 81 44 S
25.10.2020 13:00:00 2,6 2,6 44 24 94 51 SSE
25.10.2020 12:00:00 2,4 2,4 39 21 94 51 SSE
25.10.2020 11:00:00 2,4 2,4 39 21 89 48 SSE
25.10.2020 10:00:00 2,1 2,1 59 32 93 50 SSE
25.10.2020 09:00:00 2,0 2,0 41 22 81 44 SSE
25.10.2020 08:00:00 2,2 2,2 41 22 83 45 SSE
25.10.2020 07:00:00 2,2 2,2 55 30 102 55 SSE
25.10.2020 06:00:00 2,2 2,2 35 19 81 44 SSE
25.10.2020 05:00:00 1,9 1,9 50 27 102 55 S
25.10.2020 04:00:00 2,0 2,0 50 27 117 63 S

tt = temperature
td = dewpoint
ff = wind speed
fx = gusts
dd = wind direction

Next stations